Time;durP1;ratioP1;P1;durP2;ratioP2;P2;SDS_P1;SDS_P2;PMS_P1;PMS_P2;Temp;Humidity;BMP_temperature;BMP_pressure;BME280_temperature;BME280_humidity;BME280_pressure;Samples;Min_cycle;Max_cycle;Signal;HPM_P1;HPM_P2
2023/06/09 00:00:18;;;;;;;15.98;5.72;;;16.00;99.90;;;;;;5064491;28;20398;-69
2023/06/09 00:02:47;;;;;;;19.30;5.60;;;16.00;99.90;;;;;;5064028;28;20017;-68
2023/06/09 00:05:13;;;;;;;18.95;6.32;;;15.90;99.90;;;;;;5063495;28;20100;-70
2023/06/09 00:07:39;;;;;;;22.83;6.28;;;15.90;99.90;;;;;;5063915;28;20106;-69
2023/06/09 00:10:06;;;;;;;17.27;6.43;;;15.80;99.90;;;;;;5064095;28;20428;-68
2023/06/09 00:12:31;;;;;;;14.88;5.47;;;15.80;99.90;;;;;;5063273;28;20025;-69
2023/06/09 00:14:58;;;;;;;26.05;6.30;;;15.80;99.90;;;;;;5063666;28;20051;-68
2023/06/09 00:17:24;;;;;;;17.70;6.15;;;15.80;99.90;;;;;;5063712;28;20355;-69
2023/06/09 00:19:52;;;;;;;23.15;6.47;;;15.80;99.90;;;;;;5063324;28;20040;-69
2023/06/09 00:22:19;;;;;;;25.70;7.00;;;15.70;99.90;;;;;;5063620;28;20025;-69
2023/06/09 00:24:46;;;;;;;22.42;6.78;;;15.70;99.90;;;;;;5063262;28;20044;-69
2023/06/09 00:27:11;;;;;;;16.63;7.07;;;15.70;99.90;;;;;;5063536;28;20025;-68
2023/06/09 00:29:37;;;;;;;19.27;6.10;;;15.50;99.90;;;;;;5063675;28;20021;-68
2023/06/09 00:32:04;;;;;;;21.58;6.07;;;15.50;99.90;;;;;;5061219;28;20029;-69
2023/06/09 00:34:30;;;;;;;18.67;6.68;;;15.40;99.90;;;;;;5062917;28;20330;-69
2023/06/09 00:36:55;;;;;;;16.52;6.00;;;15.50;99.90;;;;;;5063803;28;20013;-69
2023/06/09 00:39:22;;;;;;;19.60;6.40;;;15.40;99.90;;;;;;5062555;28;20068;-70
2023/06/09 00:41:48;;;;;;;26.27;7.78;;;15.40;99.90;;;;;;5060900;28;20047;-69
2023/06/09 00:44:15;;;;;;;21.88;7.50;;;15.40;99.90;;;;;;5062234;28;20025;-68
2023/06/09 00:46:41;;;;;;;20.80;6.93;;;15.40;99.90;;;;;;5062787;28;20140;-69
2023/06/09 00:49:08;;;;;;;26.73;6.65;;;15.50;99.90;;;;;;5063365;28;20017;-69
2023/06/09 00:51:36;;;;;;;20.42;6.40;;;15.40;99.90;;;;;;5062486;28;20057;-69
2023/06/09 00:54:04;;;;;;;21.58;6.82;;;15.30;99.90;;;;;;5062746;28;20017;-68
2023/06/09 00:56:31;;;;;;;20.55;6.80;;;15.30;99.90;;;;;;5063444;28;20024;-68
2023/06/09 00:58:57;;;;;;;21.63;6.93;;;15.30;99.90;;;;;;5062778;28;20013;-69
2023/06/09 01:01:23;;;;;;;21.00;6.68;;;15.30;99.90;;;;;;5062781;28;20036;-69
2023/06/09 01:03:50;;;;;;;20.45;6.65;;;15.30;99.90;;;;;;5062028;28;20028;-69
2023/06/09 01:06:32;;;;;;;26.83;7.03;;;15.20;99.90;;;;;;5061513;28;20033;-69
2023/06/09 01:09:32;;;;;;;16.45;6.60;;;15.30;99.90;;;;;;5062395;28;20029;-70
2023/06/09 01:12:02;;;;;;;18.38;6.80;;;15.20;99.90;;;;;;5059171;28;20090;-69
2023/06/09 01:14:36;;;;;;;21.00;7.20;;;15.20;99.90;;;;;;5062637;28;20044;-68
2023/06/09 01:17:11;;;;;;;23.30;6.63;;;15.20;99.90;;;;;;5061726;28;20013;-69
2023/06/09 01:19:41;;;;;;;21.20;7.18;;;15.20;99.90;;;;;;5062709;28;20650;-68
2023/06/09 01:22:36;;;;;;;25.70;8.02;;;15.10;99.90;;;;;;5062212;28;20044;-68
2023/06/09 01:25:23;;;;;;;17.88;6.53;;;15.10;99.90;;;;;;5062282;28;20032;-69
2023/06/09 01:27:51;;;;;;;24.33;7.13;;;15.10;99.90;;;;;;5060780;28;20036;-68
2023/06/09 01:30:18;;;;;;;20.58;7.75;;;15.10;99.90;;;;;;5062159;28;20025;-70
2023/06/09 01:32:45;;;;;;;19.13;7.20;;;15.10;99.90;;;;;;5062441;28;20021;-68
2023/06/09 01:35:12;;;;;;;26.80;8.10;;;15.10;99.90;;;;;;5061087;28;20025;-69
2023/06/09 01:37:38;;;;;;;20.10;6.60;;;15.10;99.90;;;;;;5062598;28;20482;-68
2023/06/09 01:40:04;;;;;;;22.30;6.95;;;15.10;99.90;;;;;;5062109;28;20063;-69
2023/06/09 01:42:30;;;;;;;20.80;7.07;;;15.10;99.90;;;;;;5062286;28;20035;-69
2023/06/09 01:44:55;;;;;;;22.35;6.85;;;15.10;99.90;;;;;;5061887;28;20060;-69
2023/06/09 01:47:21;;;;;;;23.30;7.30;;;15.10;99.90;;;;;;5062159;28;20029;-69
2023/06/09 01:50:03;;;;;;;24.13;7.95;;;15.10;99.90;;;;;;5062001;28;20017;-69
2023/06/09 01:52:47;;;;;;;22.30;7.72;;;15.10;99.90;;;;;;5059572;28;20053;-68
2023/06/09 01:55:19;;;;;;;24.20;7.57;;;15.10;99.90;;;;;;5061894;28;20025;-70
2023/06/09 01:57:52;;;;;;;23.63;6.57;;;15.00;99.90;;;;;;5062073;28;20112;-71
2023/06/09 02:00:23;;;;;;;22.33;7.80;;;15.00;99.90;;;;;;5061248;28;20104;-69
2023/06/09 02:02:52;;;;;;;24.77;7.65;;;15.10;99.90;;;;;;5061911;28;20029;-68
2023/06/09 02:05:19;;;;;;;20.02;7.47;;;15.10;99.90;;;;;;5061942;28;20017;-69
2023/06/09 02:07:46;;;;;;;22.60;7.30;;;15.10;99.90;;;;;;5061596;28;20091;-69
2023/06/09 02:10:12;;;;;;;20.48;7.60;;;15.20;99.90;;;;;;5061266;28;20044;-70
2023/06/09 02:12:38;;;;;;;20.75;6.93;;;15.20;99.90;;;;;;5061772;28;20607;-69
2023/06/09 02:15:05;;;;;;;21.73;7.25;;;15.20;99.90;;;;;;5061739;28;20031;-69
2023/06/09 02:17:32;;;;;;;16.55;7.07;;;15.30;99.90;;;;;;5061679;28;20051;-69
2023/06/09 02:19:58;;;;;;;22.30;7.03;;;15.30;99.90;;;;;;5061067;28;20023;-68
2023/06/09 02:22:23;;;;;;;22.17;7.47;;;15.30;99.90;;;;;;5061611;28;20123;-68
2023/06/09 02:24:49;;;;;;;21.63;8.13;;;15.30;99.90;;;;;;5061234;28;20017;-70
2023/06/09 02:27:15;;;;;;;19.20;7.47;;;15.30;99.90;;;;;;5061872;28;20023;-70
2023/06/09 02:29:40;;;;;;;20.15;7.82;;;15.30;99.90;;;;;;5061835;28;20830;-69
2023/06/09 02:32:06;;;;;;;22.23;7.68;;;15.20;99.90;;;;;;5061442;28;20029;-69
2023/06/09 02:34:32;;;;;;;23.20;7.65;;;15.20;99.90;;;;;;5061721;28;20027;-69
2023/06/09 02:36:58;;;;;;;22.67;8.20;;;15.30;99.90;;;;;;5061185;28;20482;-69
2023/06/09 02:39:24;;;;;;;23.58;7.22;;;15.20;99.90;;;;;;5061086;28;20474;-69
2023/06/09 02:41:50;;;;;;;23.23;8.05;;;15.30;99.90;;;;;;5061195;28;20021;-69
2023/06/09 02:44:15;;;;;;;22.67;7.88;;;15.20;99.90;;;;;;5061623;28;20108;-69
2023/06/09 02:46:43;;;;;;;18.52;8.38;;;15.20;99.90;;;;;;5061570;28;20033;-69
2023/06/09 02:49:09;;;;;;;22.88;8.13;;;15.20;99.90;;;;;;5059936;28;20075;-69
2023/06/09 02:51:36;;;;;;;26.70;8.15;;;15.10;99.90;;;;;;5061119;28;20049;-69
2023/06/09 02:54:02;;;;;;;20.05;7.15;;;15.10;99.90;;;;;;5061161;28;20108;-69
2023/06/09 02:56:27;;;;;;;24.40;7.00;;;15.10;99.90;;;;;;5061480;28;20037;-68
2023/06/09 02:58:53;;;;;;;21.38;7.88;;;15.00;99.90;;;;;;5060871;28;20048;-70
2023/06/09 03:01:20;;;;;;;19.20;7.57;;;15.00;99.90;;;;;;5061367;28;20021;-69
2023/06/09 03:03:46;;;;;;;27.60;8.93;;;15.00;99.90;;;;;;5061539;28;20017;-70
2023/06/09 03:06:13;;;;;;;18.90;8.10;;;14.90;99.90;;;;;;5061216;28;20520;-69
2023/06/09 03:08:43;;;;;;;17.50;7.95;;;14.90;99.90;;;;;;5061260;28;20025;-68
2023/06/09 03:11:09;;;;;;;22.65;8.40;;;14.80;99.90;;;;;;5060979;28;20100;-68
2023/06/09 03:13:35;;;;;;;23.40;8.77;;;14.80;99.90;;;;;;5061177;28;20056;-69
2023/06/09 03:16:02;;;;;;;23.05;9.05;;;14.80;99.90;;;;;;5061059;28;20465;-69
2023/06/09 03:18:27;;;;;;;24.20;8.15;;;14.80;99.90;;;;;;5060841;28;20489;-68
2023/06/09 03:20:55;;;;;;;24.67;8.98;;;14.70;99.90;;;;;;5059438;28;20024;-68
2023/06/09 03:23:21;;;;;;;24.77;8.63;;;14.70;99.90;;;;;;5058106;28;20089;-70
2023/06/09 03:25:51;;;;;;;30.40;8.30;;;14.70;99.90;;;;;;5060286;28;20036;-69
2023/06/09 03:28:17;;;;;;;21.48;8.63;;;14.70;99.90;;;;;;5060333;28;20078;-71
2023/06/09 03:30:43;;;;;;;21.83;8.38;;;14.70;99.90;;;;;;5061131;28;20032;-70
2023/06/09 03:33:11;;;;;;;24.80;8.85;;;14.70;99.90;;;;;;5060689;28;20025;-68
2023/06/09 03:35:36;;;;;;;23.45;8.98;;;14.70;99.90;;;;;;5060055;28;20028;-68
2023/06/09 03:38:02;;;;;;;23.58;9.38;;;14.60;99.90;;;;;;5060925;28;20021;-69
2023/06/09 03:40:27;;;;;;;22.35;8.82;;;14.50;99.90;;;;;;5063032;28;20020;-70
2023/06/09 03:42:53;;;;;;;21.05;8.75;;;14.50;99.90;;;;;;5064271;28;20082;-69
2023/06/09 03:45:18;;;;;;;24.45;9.02;;;14.50;99.90;;;;;;5064678;28;20563;-69
2023/06/09 03:47:44;;;;;;;23.60;9.05;;;14.50;99.90;;;;;;5064393;28;20089;-69
2023/06/09 03:50:10;;;;;;;19.73;8.63;;;14.50;99.90;;;;;;5063603;28;20029;-69
2023/06/09 03:52:36;;;;;;;27.40;9.15;;;14.50;99.90;;;;;;5064028;28;20049;-68
2023/06/09 03:55:01;;;;;;;25.42;8.30;;;14.50;99.90;;;;;;5064051;28;20104;-68
2023/06/09 03:57:27;;;;;;;28.48;9.60;;;14.50;99.90;;;;;;5064007;28;20032;-68
2023/06/09 03:59:53;;;;;;;23.67;8.82;;;14.50;99.90;;;;;;5062182;28;20017;-68
2023/06/09 04:02:18;;;;;;;25.45;9.02;;;14.60;99.90;;;;;;5064138;28;20029;-69
2023/06/09 04:04:45;;;;;;;28.42;9.20;;;14.60;99.90;;;;;;5063899;28;20035;-69
2023/06/09 04:07:11;;;;;;;32.92;9.57;;;14.50;99.90;;;;;;5064119;28;20033;-69
2023/06/09 04:09:37;;;;;;;25.08;9.48;;;14.50;99.90;;;;;;5063066;28;20021;-69
2023/06/09 04:12:03;;;;;;;26.67;9.02;;;14.50;99.90;;;;;;5063992;28;20028;-68
2023/06/09 04:14:28;;;;;;;26.90;9.98;;;14.50;99.90;;;;;;5062635;28;20021;-69
2023/06/09 04:16:54;;;;;;;30.60;9.38;;;14.50;99.90;;;;;;5063797;28;20017;-68
2023/06/09 04:19:19;;;;;;;22.00;8.93;;;14.60;99.90;;;;;;5063798;28;20033;-70
2023/06/09 04:21:46;;;;;;;27.70;9.75;;;14.60;99.90;;;;;;5064232;28;20017;-68
2023/06/09 04:24:14;;;;;;;21.15;8.60;;;14.60;99.90;;;;;;5062577;28;20116;-70
2023/06/09 04:26:40;;;;;;;24.65;9.20;;;14.60;99.90;;;;;;5063840;28;20083;-69
2023/06/09 04:29:09;;;;;;;21.25;8.98;;;14.60;99.90;;;;;;5063724;28;20013;-69
2023/06/09 04:31:37;;;;;;;25.45;9.75;;;14.60;99.90;;;;;;5062808;28;20029;-70
2023/06/09 04:34:09;;;;;;;23.83;9.10;;;14.50;99.90;;;;;;5063619;28;20047;-69
2023/06/09 04:36:35;;;;;;;24.65;9.55;;;14.50;99.90;;;;;;5062180;28;20032;-68
2023/06/09 04:39:00;;;;;;;26.85;9.95;;;14.60;99.90;;;;;;5059661;28;20029;-69
2023/06/09 04:41:26;;;;;;;25.38;10.05;;;14.60;99.90;;;;;;5063532;28;20037;-68
2023/06/09 04:43:53;;;;;;;28.45;9.65;;;14.60;99.90;;;;;;5063250;28;20032;-70
2023/06/09 04:46:24;;;;;;;23.95;9.40;;;14.60;99.90;;;;;;5062998;28;20503;-68
2023/06/09 04:48:51;;;;;;;27.02;9.70;;;14.70;99.90;;;;;;5061047;28;20123;-69
2023/06/09 04:51:19;;;;;;;20.92;8.35;;;14.70;99.90;;;;;;5057607;28;20127;-70
2023/06/09 04:53:47;;;;;;;32.13;10.90;;;14.70;99.90;;;;;;5062216;28;20017;-69
2023/06/09 04:56:16;;;;;;;20.77;9.48;;;14.80;99.90;;;;;;5063055;28;20120;-69
2023/06/09 04:58:42;;;;;;;24.20;9.88;;;14.80;99.90;;;;;;5061983;28;20036;-69
2023/06/09 05:01:07;;;;;;;24.20;9.30;;;14.90;99.90;;;;;;5061210;28;20472;-68
2023/06/09 05:03:33;;;;;;;30.73;10.02;;;14.90;99.90;;;;;;5062433;28;20033;-68
2023/06/09 05:05:59;;;;;;;26.38;9.55;;;14.90;99.90;;;;;;5062334;28;20021;-68
2023/06/09 05:08:25;;;;;;;33.65;9.65;;;15.00;99.90;;;;;;5061249;28;20041;-68
2023/06/09 05:10:52;;;;;;;19.38;9.05;;;15.00;99.90;;;;;;5061771;28;20041;-67
2023/06/09 05:13:18;;;;;;;22.63;9.43;;;15.10;99.90;;;;;;5062275;28;20040;-68
2023/06/09 05:15:45;;;;;;;22.95;8.77;;;15.10;99.90;;;;;;5062307;28;20088;-69
2023/06/09 05:18:10;;;;;;;24.27;9.30;;;15.10;99.90;;;;;;5060143;28;20051;-68
2023/06/09 05:20:36;;;;;;;20.10;9.18;;;15.20;99.90;;;;;;5061302;28;21089;-69
2023/06/09 05:23:02;;;;;;;21.58;8.75;;;15.20;99.90;;;;;;5060870;28;20048;-70
2023/06/09 05:25:28;;;;;;;26.15;9.20;;;15.20;99.90;;;;;;5059243;28;20063;-69
2023/06/09 05:27:53;;;;;;;26.55;9.70;;;15.30;99.90;;;;;;5060325;28;20041;-68
2023/06/09 05:30:19;;;;;;;22.27;8.55;;;15.40;99.90;;;;;;5060006;28;20116;-69
2023/06/09 05:32:45;;;;;;;20.92;8.80;;;15.40;99.90;;;;;;5057274;28;20021;-69
2023/06/09 05:35:10;;;;;;;20.30;9.02;;;15.40;99.90;;;;;;5057670;28;20087;-69
2023/06/09 05:37:48;;;;;;;23.90;9.05;;;15.50;99.90;;;;;;5058568;28;20032;-68
2023/06/09 05:40:15;;;;;;;21.10;9.18;;;15.50;99.90;;;;;;5059251;28;20597;-68
2023/06/09 05:42:41;;;;;;;21.73;8.23;;;15.60;99.90;;;;;;5058983;28;20119;-67
2023/06/09 05:45:07;;;;;;;22.15;8.70;;;15.70;99.90;;;;;;5060425;28;20037;-67
2023/06/09 05:47:33;;;;;;;18.98;8.13;;;15.80;99.90;;;;;;5058909;28;20021;-68
2023/06/09 05:49:59;;;;;;;25.77;8.55;;;15.80;99.90;;;;;;5057703;28;20400;-68
2023/06/09 05:52:25;;;;;;;23.27;8.10;;;15.90;99.90;;;;;;5054260;28;20077;-68
2023/06/09 05:54:51;;;;;;;17.70;8.23;;;16.00;99.90;;;;;;5060667;28;20023;-68
2023/06/09 05:57:18;;;;;;;18.38;8.13;;;16.10;99.90;;;;;;5060271;28;20084;-67
2023/06/09 05:59:44;;;;;;;19.67;8.30;;;16.10;99.90;;;;;;5060919;28;20029;-69
2023/06/09 06:02:09;;;;;;;21.10;8.45;;;16.20;99.90;;;;;;5059898;28;20093;-68
2023/06/09 06:04:35;;;;;;;16.77;7.85;;;16.20;99.90;;;;;;5061145;28;20021;-68
2023/06/09 06:07:00;;;;;;;21.38;8.15;;;16.30;99.90;;;;;;5061374;28;20693;-68
2023/06/09 06:09:26;;;;;;;16.13;7.78;;;16.40;99.90;;;;;;5061079;28;20027;-68
2023/06/09 06:11:52;;;;;;;22.02;8.02;;;16.50;99.90;;;;;;5061649;28;20063;-68
2023/06/09 06:14:17;;;;;;;17.65;7.70;;;16.60;99.90;;;;;;5061435;28;20059;-70
2023/06/09 06:16:43;;;;;;;21.27;8.02;;;16.60;99.90;;;;;;5061631;28;20021;-69
2023/06/09 06:19:11;;;;;;;19.52;8.05;;;16.70;99.90;;;;;;5061891;28;20390;-68
2023/06/09 06:21:37;;;;;;;18.15;8.13;;;16.80;99.90;;;;;;5060996;28;20027;-69
2023/06/09 06:24:04;;;;;;;21.05;8.63;;;16.90;99.90;;;;;;5060479;28;20021;-68
2023/06/09 06:26:29;;;;;;;23.58;8.77;;;16.90;99.90;;;;;;5060767;28;20063;-67
2023/06/09 06:28:55;;;;;;;15.35;7.95;;;17.00;99.90;;;;;;5061015;28;20021;-68
2023/06/09 06:31:21;;;;;;;19.80;7.78;;;17.10;99.90;;;;;;5061365;28;20168;-68
2023/06/09 06:33:46;;;;;;;19.75;7.60;;;17.20;99.90;;;;;;5061421;28;20024;-69
2023/06/09 06:36:12;;;;;;;18.88;8.18;;;17.30;99.90;;;;;;5061458;28;20031;-69
2023/06/09 06:38:37;;;;;;;21.65;8.77;;;17.40;99.90;;;;;;5061084;28;20080;-68
2023/06/09 06:41:04;;;;;;;20.67;8.23;;;17.40;99.90;;;;;;5061367;28;20030;-68
2023/06/09 06:43:30;;;;;;;20.58;8.35;;;17.50;99.90;;;;;;5060773;28;20052;-69
2023/06/09 06:45:55;;;;;;;20.50;8.30;;;17.60;99.90;;;;;;5060474;28;20048;-68
2023/06/09 06:48:21;;;;;;;20.73;8.60;;;17.70;99.90;;;;;;5051759;28;20112;-69
2023/06/09 06:50:47;;;;;;;17.38;8.93;;;17.70;99.90;;;;;;5051850;28;20057;-68
2023/06/09 06:53:13;;;;;;;19.58;9.00;;;17.80;99.90;;;;;;5058153;28;20048;-66
2023/06/09 06:55:39;;;;;;;22.20;9.07;;;17.90;99.90;;;;;;5053822;28;20029;-66
2023/06/09 06:58:04;;;;;;;18.95;8.68;;;17.90;99.90;;;;;;5057259;28;20419;-67
2023/06/09 07:00:30;;;;;;;21.75;8.80;;;18.00;99.90;;;;;;5060166;28;20021;-68
2023/06/09 07:02:56;;;;;;;17.35;8.18;;;18.10;99.90;;;;;;5060898;28;20032;-67
2023/06/09 07:05:22;;;;;;;23.02;8.77;;;18.30;99.90;;;;;;5059957;28;20017;-68
2023/06/09 07:07:47;;;;;;;18.10;8.18;;;18.30;99.90;;;;;;5061054;28;20033;-67
2023/06/09 07:10:14;;;;;;;17.85;8.25;;;18.30;99.90;;;;;;5060964;28;20041;-70
2023/06/09 07:12:41;;;;;;;21.63;8.68;;;18.40;99.90;;;;;;5061187;28;20026;-68
2023/06/09 07:15:07;;;;;;;18.63;8.15;;;18.60;99.90;;;;;;5060309;28;20048;-70
2023/06/09 07:17:33;;;;;;;19.40;8.18;;;18.60;99.90;;;;;;5064659;28;20053;-69
2023/06/09 07:19:59;;;;;;;19.83;8.07;;;18.80;99.90;;;;;;5063330;28;20079;-67
2023/06/09 07:22:25;;;;;;;18.13;8.13;;;18.80;99.90;;;;;;5063966;28;20063;-66
2023/06/09 07:24:51;;;;;;;18.25;8.60;;;19.00;99.90;;;;;;5064051;28;20024;-66
2023/06/09 07:27:16;;;;;;;14.68;8.38;;;19.10;99.90;;;;;;5064458;28;20033;-68
2023/06/09 07:29:43;;;;;;;15.02;8.10;;;19.10;99.90;;;;;;5063948;28;20051;-70
2023/06/09 07:32:09;;;;;;;18.88;7.75;;;19.20;99.90;;;;;;5064310;28;20025;-69
2023/06/09 07:34:35;;;;;;;18.35;8.27;;;19.40;99.90;;;;;;5064325;28;20040;-66
2023/06/09 07:37:04;;;;;;;14.70;7.13;;;19.40;99.90;;;;;;5064635;28;20385;-67
2023/06/09 07:39:30;;;;;;;14.23;7.60;;;19.50;99.90;;;;;;5064498;28;20068;-66
2023/06/09 07:41:56;;;;;;;17.17;8.65;;;19.60;99.90;;;;;;5064242;28;20043;-65
2023/06/09 07:44:21;;;;;;;14.25;7.68;;;19.60;99.90;;;;;;5064331;28;20032;-68
2023/06/09 07:46:47;;;;;;;18.98;7.43;;;19.70;99.90;;;;;;5064704;28;20029;-68
2023/06/09 07:49:14;;;;;;;19.00;8.52;;;19.80;99.90;;;;;;5058741;28;20033;-68
2023/06/09 07:51:41;;;;;;;14.10;7.03;;;19.90;99.90;;;;;;5059960;28;20489;-68
2023/06/09 07:54:07;;;;;;;15.48;6.93;;;20.00;99.90;;;;;;5055758;28;20024;-69
2023/06/09 07:56:33;;;;;;;16.10;7.57;;;20.10;99.90;;;;;;5062013;28;20057;-65
2023/06/09 07:58:58;;;;;;;16.52;7.30;;;20.20;99.90;;;;;;5063684;28;20036;-67
2023/06/09 08:01:29;;;;;;;17.25;7.10;;;20.30;99.90;;;;;;5062993;28;20025;-67
2023/06/09 08:03:55;;;;;;;18.20;7.25;;;20.40;99.90;;;;;;5061091;28;20078;-65
2023/06/09 08:06:21;;;;;;;13.73;6.63;;;20.50;99.90;;;;;;5062491;28;20033;-66
2023/06/09 08:08:47;;;;;;;15.02;6.78;;;20.60;99.90;;;;;;5062748;28;20393;-67
2023/06/09 08:11:13;;;;;;;13.00;6.38;;;20.70;99.90;;;;;;5062820;28;20045;-67
2023/06/09 08:13:38;;;;;;;17.85;6.68;;;20.80;99.90;;;;;;5058815;28;20036;-65
2023/06/09 08:16:04;;;;;;;15.82;6.57;;;20.90;99.90;;;;;;5057047;28;20119;-65
2023/06/09 08:18:30;;;;;;;13.32;6.07;;;21.00;99.90;;;;;;5060542;28;20021;-66
2023/06/09 08:20:55;;;;;;;11.98;5.60;;;21.10;99.90;;;;;;5062447;28;20052;-67
2023/06/09 08:23:22;;;;;;;15.15;6.03;;;21.20;99.90;;;;;;5063239;28;20029;-65
2023/06/09 08:25:48;;;;;;;11.50;5.80;;;21.30;99.90;;;;;;5062250;28;20021;-66
2023/06/09 08:28:14;;;;;;;12.90;5.78;;;21.40;99.90;;;;;;5061480;28;20040;-67
2023/06/09 08:30:39;;;;;;;13.30;6.20;;;21.50;99.90;;;;;;5059970;28;20045;-67
2023/06/09 08:33:05;;;;;;;16.45;5.65;;;21.60;99.90;;;;;;5056222;28;20035;-65
2023/06/09 08:35:32;;;;;;;12.50;5.65;;;21.70;99.90;;;;;;5058389;28;20445;-67
2023/06/09 08:37:58;;;;;;;15.18;5.80;;;21.80;99.90;;;;;;5059721;28;20029;-66
2023/06/09 08:40:24;;;;;;;13.60;5.88;;;21.90;99.90;;;;;;5060183;28;20028;-66
2023/06/09 08:42:53;;;;;;;16.65;5.75;;;21.90;99.90;;;;;;5054670;28;20308;-67
2023/06/09 08:45:20;;;;;;;10.32;5.13;;;22.00;99.90;;;;;;5059659;28;20103;-66
2023/06/09 08:47:53;;;;;;;10.38;5.65;;;22.10;99.90;;;;;;5059608;28;20029;-65
2023/06/09 08:50:20;;;;;;;11.93;5.70;;;22.20;99.90;;;;;;5062158;28;20041;-66
2023/06/09 08:52:47;;;;;;;12.80;5.78;;;22.30;99.90;;;;;;5062946;28;20045;-65
2023/06/09 08:55:14;;;;;;;16.90;5.57;;;22.40;99.90;;;;;;5062584;28;20029;-67
2023/06/09 08:57:40;;;;;;;11.80;5.78;;;22.50;99.90;;;;;;5062068;28;20028;-67
2023/06/09 09:00:09;;;;;;;12.02;5.50;;;22.60;99.90;;;;;;5060413;28;20028;-68
2023/06/09 09:02:35;;;;;;;9.60;5.30;;;22.70;99.90;;;;;;5059776;28;20028;-66
2023/06/09 09:05:01;;;;;;;9.00;5.65;;;22.80;99.90;;;;;;5060029;28;20120;-68
2023/06/09 09:07:27;;;;;;;9.68;5.88;;;23.00;99.90;;;;;;5060873;28;20044;-66
2023/06/09 09:09:54;;;;;;;10.73;5.72;;;23.10;99.90;;;;;;5062972;28;20060;-66
2023/06/09 09:12:19;;;;;;;11.52;5.43;;;23.30;99.90;;;;;;5063061;28;20052;-68
2023/06/09 09:14:45;;;;;;;9.75;5.40;;;23.40;99.90;;;;;;5062168;28;20017;-65
2023/06/09 09:17:12;;;;;;;12.23;5.43;;;23.50;99.90;;;;;;5060674;28;20044;-68
2023/06/09 09:19:45;;;;;;;10.68;5.13;;;23.60;99.90;;;;;;5062619;28;20401;-66
2023/06/09 09:22:11;;;;;;;13.40;5.35;;;23.70;99.90;;;;;;5058502;28;20101;-66
2023/06/09 09:24:44;;;;;;;12.40;5.25;;;23.80;99.90;;;;;;5062596;28;20028;-65
2023/06/09 09:27:22;;;;;;;8.90;4.90;;;23.90;99.90;;;;;;5060587;28;20025;-67
2023/06/09 09:29:48;;;;;;;10.57;5.07;;;23.90;99.90;;;;;;5060909;28;20028;-68
2023/06/09 09:32:15;;;;;;;9.57;5.55;;;24.00;99.90;;;;;;5061498;28;20037;-67
2023/06/09 09:34:42;;;;;;;10.25;5.25;;;24.10;99.90;;;;;;5061764;28;20028;-66
2023/06/09 09:37:11;;;;;;;9.07;4.97;;;24.10;99.90;;;;;;5062071;28;20021;-66
2023/06/09 09:39:50;;;;;;;7.75;4.78;;;24.10;99.90;;;;;;5060578;28;20068;-65
2023/06/09 09:42:17;;;;;;;10.35;5.30;;;24.20;99.90;;;;;;5059652;28;20037;-67
2023/06/09 09:44:51;;;;;;;12.70;5.50;;;24.30;99.90;;;;;;5060352;28;20021;-66
2023/06/09 09:47:18;;;;;;;8.70;5.28;;;24.30;99.90;;;;;;5061164;28;20035;-65
2023/06/09 09:49:55;;;;;;;10.63;5.00;;;24.30;99.90;;;;;;5061873;28;20041;-67
2023/06/09 09:52:25;;;;;;;9.85;5.20;;;24.40;99.90;;;;;;5061934;28;20064;-68
2023/06/09 09:55:13;;;;;;;9.13;5.15;;;24.50;99.90;;;;;;5060530;28;20031;-67
2023/06/09 09:57:40;;;;;;;7.45;4.75;;;24.50;99.90;;;;;;5062430;28;20017;-66
2023/06/09 10:00:11;;;;;;;9.13;5.03;;;24.60;99.90;;;;;;5059477;28;20028;-65
2023/06/09 10:02:43;;;;;;;11.57;4.88;;;24.70;99.90;;;;;;5060703;28;20033;-66
2023/06/09 10:05:10;;;;;;;10.82;5.25;;;24.70;99.90;;;;;;5059896;28;20017;-67
2023/06/09 10:07:39;;;;;;;9.82;4.95;;;24.80;99.90;;;;;;5059578;28;20055;-67
2023/06/09 10:10:08;;;;;;;11.32;5.20;;;24.90;99.90;;;;;;5057088;28;20033;-66
2023/06/09 10:12:37;;;;;;;9.45;4.78;;;25.00;99.90;;;;;;5059664;28;20029;-67
2023/06/09 10:15:04;;;;;;;10.00;5.20;;;25.10;99.90;;;;;;5056213;28;20024;-67
2023/06/09 10:17:30;;;;;;;7.97;4.75;;;25.10;99.90;;;;;;5057581;28;20021;-67
2023/06/09 10:19:56;;;;;;;9.50;4.90;;;25.20;99.90;;;;;;5059094;28;20021;-67
2023/06/09 10:22:23;;;;;;;8.23;4.93;;;25.30;99.90;;;;;;5057114;28;20036;-67
2023/06/09 10:24:50;;;;;;;10.60;4.63;;;25.30;99.90;;;;;;5058934;28;20055;-68
2023/06/09 10:27:16;;;;;;;9.68;5.20;;;25.30;99.90;;;;;;5060059;28;20017;-67
2023/06/09 10:29:42;;;;;;;8.70;4.85;;;25.40;99.90;;;;;;5060152;28;20062;-66
2023/06/09 10:32:12;;;;;;;10.93;5.38;;;25.50;99.90;;;;;;5060160;28;20040;-67
2023/06/09 10:34:41;;;;;;;7.68;5.03;;;25.50;99.90;;;;;;5061319;28;20032;-67
2023/06/09 10:37:07;;;;;;;9.32;4.90;;;25.60;99.90;;;;;;5061104;28;20080;-66
2023/06/09 10:39:58;;;;;;;9.68;4.32;;;25.70;99.90;;;;;;5059837;28;20045;-66
2023/06/09 10:43:01;;;;;;;7.60;4.28;;;25.80;99.90;;;;;;5061025;28;20025;-66
2023/06/09 10:46:12;;;;;;;9.40;4.13;;;25.90;99.90;;;;;;5061223;28;20024;-66
2023/06/09 10:48:46;;;;;;;8.38;4.53;;;26.00;99.90;;;;;;5034645;28;20097;-66
2023/06/09 10:51:26;;;;;;;9.88;5.10;;;26.00;99.90;;;;;;5060035;28;20498;-66
2023/06/09 10:54:12;;;;;;;11.02;4.75;;;26.20;99.90;;;;;;5062132;28;20452;-67
2023/06/09 10:56:43;;;;;;;10.43;4.47;;;26.30;99.90;;;;;;5063864;28;20029;-66
2023/06/09 10:59:25;;;;;;;7.90;4.20;;;26.30;99.90;;;;;;5060038;28;20681;-67
2023/06/09 11:04:43;;;;;;;7.15;4.65;;;26.50;99.90;;;;;;5063672;28;20029;-67
2023/06/09 11:07:12;;;;;;;6.10;4.50;;;26.60;99.90;;;;;;5064428;28;20457;-67
2023/06/09 11:09:39;;;;;;;8.57;4.40;;;26.70;99.90;;;;;;5064238;28;20029;-67
2023/06/09 11:12:05;;;;;;;6.50;4.15;;;26.70;99.90;;;;;;5062932;28;20045;-67
2023/06/09 11:14:46;;;;;;;7.85;4.28;;;26.80;99.90;;;;;;5061714;28;20044;-67
2023/06/09 11:17:36;;;;;;;10.50;4.30;;;26.90;99.90;;;;;;5061188;28;20033;-67
2023/06/09 11:20:05;;;;;;;9.88;4.60;;;26.80;99.90;;;;;;5063065;28;20163;-66
2023/06/09 11:22:32;;;;;;;10.20;4.38;;;26.90;99.90;;;;;;5063718;28;20039;-67
2023/06/09 11:24:59;;;;;;;7.22;4.40;;;27.00;99.90;;;;;;5060113;28;20039;-66
2023/06/09 11:27:24;;;;;;;11.57;4.65;;;27.10;99.90;;;;;;5049568;28;20094;-67
2023/06/09 11:30:08;;;;;;;8.63;4.32;;;27.20;99.90;;;;;;5047134;28;20029;-69
2023/06/09 11:33:06;;;;;;;11.48;4.53;;;27.20;99.90;;;;;;5049852;28;20563;-68
2023/06/09 11:35:32;;;;;;;6.47;4.35;;;27.30;99.90;;;;;;5036951;28;20066;-67
2023/06/09 11:38:00;;;;;;;7.93;4.32;;;27.40;99.90;;;;;;5057523;28;20029;-66
2023/06/09 11:40:27;;;;;;;8.63;4.53;;;27.50;99.90;;;;;;5061541;28;20099;-68
2023/06/09 11:42:54;;;;;;;7.13;4.25;;;27.60;99.90;;;;;;5052442;28;20033;-67
2023/06/09 11:45:24;;;;;;;8.90;4.70;;;27.60;99.90;;;;;;5059954;28;20044;-66
2023/06/09 11:47:56;;;;;;;9.65;4.53;;;27.70;99.90;;;;;;5062396;28;20036;-66
2023/06/09 11:50:46;;;;;;;10.00;4.30;;;27.80;99.90;;;;;;5061328;28;20055;-67
2023/06/09 11:53:13;;;;;;;9.43;4.35;;;27.90;99.90;;;;;;5054174;28;20055;-66
2023/06/09 11:55:39;;;;;;;11.02;4.13;;;28.00;99.90;;;;;;5061024;28;20025;-67
2023/06/09 11:58:08;;;;;;;9.73;4.72;;;28.20;99.90;;;;;;5060657;28;20039;-67
2023/06/09 12:00:38;;;;;;;6.35;4.43;;;28.30;99.90;;;;;;5062691;28;20025;-66
2023/06/09 12:03:05;;;;;;;7.32;4.55;;;28.30;99.90;;;;;;5061206;28;20405;-68
2023/06/09 12:05:31;;;;;;;7.20;4.53;;;28.30;99.90;;;;;;5061299;28;20113;-67
2023/06/09 12:07:57;;;;;;;7.05;4.72;;;28.40;99.90;;;;;;5061704;28;20041;-66
2023/06/09 12:10:27;;;;;;;6.82;4.40;;;28.50;99.90;;;;;;5063087;28;20041;-67
2023/06/09 12:12:59;;;;;;;6.45;4.25;;;28.60;99.90;;;;;;5063121;28;20112;-67
2023/06/09 12:15:26;;;;;;;7.47;4.47;;;28.70;99.90;;;;;;5064207;28;20465;-67
2023/06/09 12:17:54;;;;;;;6.88;4.63;;;28.70;99.90;;;;;;5064090;28;20021;-66
2023/06/09 12:20:28;;;;;;;7.82;4.70;;;28.70;99.90;;;;;;5062253;28;20480;-69
2023/06/09 12:23:07;;;;;;;5.85;4.30;;;28.60;99.90;;;;;;5061860;28;20029;-66
2023/06/09 12:25:38;;;;;;;8.20;4.40;;;28.70;99.90;;;;;;5062920;28;20040;-69
2023/06/09 12:28:16;;;;;;;7.05;4.38;;;28.80;99.90;;;;;;5062907;28;20468;-66
2023/06/09 12:30:47;;;;;;;8.38;4.80;;;28.90;99.90;;;;;;5061179;28;20041;-67
2023/06/09 12:33:19;;;;;;;7.05;4.55;;;29.00;99.90;;;;;;5063394;28;20025;-67
2023/06/09 12:35:49;;;;;;;7.93;4.70;;;29.10;99.90;;;;;;5062781;28;20024;-68
2023/06/09 12:38:20;;;;;;;8.38;4.72;;;29.20;99.90;;;;;;5063619;28;20485;-66
2023/06/09 12:41:25;;;;;;;6.13;4.65;;;29.40;99.90;;;;;;5063514;28;20075;-68
2023/06/09 12:43:55;;;;;;;9.23;4.60;;;29.50;99.90;;;;;;5055231;28;20048;-68
2023/06/09 12:46:37;;;;;;;6.93;4.57;;;29.50;99.90;;;;;;5058645;28;20040;-67